createdAt,value
2019-01-10T00:03:43.398Z,-1.02
2019-01-10T00:06:11.129Z,-1.09
2019-01-10T00:08:58.242Z,-1.30
2019-01-10T00:11:39.207Z,-1.33
2019-01-10T00:14:47.458Z,-1.50
2019-01-10T00:17:49.997Z,-1.49
2019-01-10T00:20:51.109Z,-1.37
2019-01-10T00:27:05.852Z,-1.39
2019-01-10T00:29:52.963Z,-1.35
2019-01-10T00:32:52.370Z,-1.35
2019-01-10T00:35:52.443Z,-1.35
2019-01-10T00:38:52.636Z,-1.44
2019-01-10T00:41:52.693Z,-1.41
2019-01-10T00:44:52.761Z,-1.42
2019-01-10T00:54:02.489Z,-1.61
2019-01-10T00:57:02.470Z,-1.62
2019-01-10T01:00:02.603Z,-1.59
2019-01-10T01:03:03.105Z,-1.76
2019-01-10T01:06:03.485Z,-1.89
2019-01-10T01:08:50.654Z,-2.05
2019-01-10T01:11:52.465Z,-2.25
2019-01-10T01:14:52.806Z,-2.28
2019-01-10T01:17:53.203Z,-2.22
2019-01-10T01:23:54.547Z,-2.20
2019-01-10T01:26:55.737Z,-2.16
2019-01-10T01:33:00.573Z,-2.22
2019-01-10T01:45:11.670Z,-2.13
2019-01-10T01:48:11.913Z,-2.09
2019-01-10T01:53:41.447Z,-2.00
2019-01-10T01:56:41.020Z,-2.03
2019-01-10T01:59:41.321Z,-2.03
2019-01-10T02:02:09.068Z,-1.97
2019-01-10T02:05:08.581Z,-1.97
2019-01-10T02:07:36.388Z,-2.04
2019-01-10T02:10:36.646Z,-2.09
2019-01-10T02:13:04.357Z,-2.10
2019-01-10T02:15:44.677Z,-2.04
2019-01-10T02:18:33.615Z,-2.02
2019-01-10T02:21:01.339Z,-2.04
2019-01-10T02:23:40.474Z,-1.93
2019-01-10T02:26:08.260Z,-1.78
2019-01-10T02:29:08.021Z,-1.75
2019-01-10T02:31:47.059Z,-1.76
2019-01-10T02:34:14.727Z,-1.62
2019-01-10T02:36:53.878Z,-1.58
2019-01-10T02:39:21.602Z,-1.56
2019-01-10T02:41:49.330Z,-1.47
2019-01-10T02:44:17.156Z,-1.41
2019-01-10T02:46:44.816Z,-1.50
2019-01-10T02:49:12.414Z,-1.47
2019-01-10T02:51:40.044Z,-1.49
2019-01-10T02:57:07.437Z,-1.60
2019-01-10T03:02:15.823Z,-1.66
2019-01-10T03:07:53.271Z,-1.53
2019-01-10T03:13:36.931Z,-1.44
2019-01-10T03:16:45.589Z,-1.39
2019-01-10T03:19:13.306Z,-1.39
2019-01-10T03:21:41.372Z,-1.45
2019-01-10T03:24:41.549Z,-1.39
2019-01-10T03:27:09.253Z,-1.33
2019-01-10T03:29:50.606Z,-1.27
2019-01-10T03:32:59.085Z,-1.26
2019-01-10T03:35:27.008Z,-1.19
2019-01-10T03:38:39.072Z,-1.15
2019-01-10T03:41:06.807Z,-1.10
2019-01-10T03:44:07.192Z,-1.15
2019-01-10T03:46:34.940Z,-1.25
2019-01-10T03:49:34.280Z,-1.21
2019-01-10T03:52:02.024Z,-1.18
2019-01-10T03:55:02.178Z,-1.20
2019-01-10T03:57:30.002Z,-1.15
2019-01-10T04:00:09.638Z,-1.17
2019-01-10T04:03:09.303Z,-1.07
2019-01-10T04:05:37.181Z,-1.09
2019-01-10T04:11:05.702Z,-1.09
2019-01-10T04:14:05.973Z,-1.12
2019-01-10T04:17:06.173Z,-1.17
2019-01-10T04:20:06.402Z,-1.31
2019-01-10T04:26:07.049Z,-1.11
2019-01-10T04:29:06.448Z,-1.24
2019-01-10T04:31:45.571Z,-1.27
2019-01-10T04:34:25.454Z,-1.35
2019-01-10T04:37:24.978Z,-1.39
2019-01-10T04:40:25.106Z,-1.28
2019-01-10T04:43:24.435Z,-1.46
2019-01-10T04:46:24.534Z,-1.39
2019-01-10T04:49:05.105Z,-1.37
2019-01-10T04:52:04.812Z,-1.32
2019-01-10T04:55:05.127Z,-1.36
2019-01-10T05:03:35.581Z,-1.39
2019-01-10T05:06:35.186Z,-1.41
2019-01-10T05:12:04.324Z,-1.38
2019-01-10T05:14:51.615Z,-1.37
2019-01-10T05:17:19.396Z,-1.32
2019-01-10T05:20:19.142Z,-1.33
2019-01-10T05:22:47.023Z,-1.53
2019-01-10T05:25:46.729Z,-1.45
2019-01-10T05:28:14.419Z,-1.41
2019-01-10T05:34:14.920Z,-1.55
2019-01-10T05:36:42.685Z,-1.55
2019-01-10T05:39:47.374Z,-1.53
2019-01-10T05:42:23.846Z,-1.69
2019-01-10T05:45:04.045Z,-2.03
2019-01-10T05:50:53.843Z,-1.85
2019-01-10T05:56:53.687Z,-1.99
2019-01-10T05:59:21.373Z,-1.87
2019-01-10T06:02:20.735Z,-1.92
2019-01-10T06:05:07.924Z,-2.00
2019-01-10T06:07:38.648Z,-2.06
2019-01-10T06:10:20.865Z,-2.09
2019-01-10T06:12:48.652Z,-2.20
2019-01-10T06:15:48.127Z,-2.21
2019-01-10T06:18:15.882Z,-2.16
2019-01-10T06:21:16.124Z,-2.16
2019-01-10T06:27:17.949Z,-1.98
2019-01-10T06:30:19.917Z,-1.93
2019-01-10T06:33:20.068Z,-1.99
2019-01-10T06:36:07.854Z,-1.97
2019-01-10T06:38:47.023Z,-1.98
2019-01-10T06:41:27.109Z,-2.04
2019-01-10T06:44:26.768Z,-1.94
2019-01-10T06:46:54.557Z,-1.88
2019-01-10T06:52:47.594Z,-1.77
2019-01-10T06:55:36.657Z,-1.71
2019-01-10T06:58:36.508Z,-1.71
2019-01-10T07:01:17.108Z,-1.68
2019-01-10T07:04:18.703Z,-1.67
2019-01-10T07:10:34.809Z,-1.55
2019-01-10T07:16:12.707Z,-1.45
2019-01-10T07:22:24.431Z,-1.39
2019-01-10T07:25:04.383Z,-1.34
2019-01-10T07:27:53.591Z,-1.21
2019-01-10T07:36:07.621Z,-1.06
2019-01-10T07:39:07.032Z,-0.96
2019-01-10T07:45:08.216Z,-0.97
2019-01-10T07:48:09.499Z,-1.03
2019-01-10T07:51:09.851Z,-0.99
2019-01-10T07:53:58.774Z,-1.04
2019-01-10T07:56:58.792Z,-0.95
2019-01-10T07:59:58.670Z,-0.87
2019-01-10T08:05:47.299Z,-0.63
2019-01-10T08:11:06.760Z,-0.44
2019-01-10T08:13:54.099Z,-0.34
2019-01-10T08:16:41.179Z,-0.22
2019-01-10T08:19:30.166Z,-0.09
2019-01-10T08:25:00.020Z,-0.11
2019-01-10T08:30:28.907Z,0.10
2019-01-10T08:33:29.131Z,0.28
2019-01-10T08:35:58.763Z,0.44
2019-01-10T08:38:58.971Z,0.55
2019-01-10T08:41:47.915Z,0.64
2019-01-10T08:44:47.281Z,0.80
2019-01-10T08:47:26.224Z,0.94
2019-01-10T08:50:26.484Z,1.07
2019-01-10T08:52:54.434Z,1.29
2019-01-10T08:58:30.524Z,1.53
2019-01-10T09:03:59.490Z,1.72
2019-01-10T09:06:59.820Z,1.73
2019-01-10T09:09:59.999Z,1.73
2019-01-10T09:12:27.712Z,1.63
2019-01-10T09:18:35.839Z,1.70
2019-01-10T09:21:35.865Z,1.76
2019-01-10T09:24:35.190Z,1.71
2019-01-10T09:27:02.934Z,1.77
2019-01-10T09:30:05.756Z,1.87
2019-01-10T09:32:33.477Z,1.91
2019-01-10T09:35:33.234Z,1.95
2019-01-10T09:38:33.233Z,2.07
2019-01-10T09:41:33.384Z,2.15
2019-01-10T09:44:33.923Z,2.11
2019-01-10T09:47:13.611Z,2.23
2019-01-10T09:50:18.078Z,2.29
2019-01-10T09:53:18.415Z,2.36
2019-01-10T09:56:18.564Z,2.36
2019-01-10T10:02:20.045Z,2.42
2019-01-10T10:05:20.082Z,2.56
2019-01-10T10:08:19.429Z,2.57
2019-01-10T10:11:19.499Z,2.59
2019-01-10T10:14:19.628Z,2.64
2019-01-10T10:17:18.903Z,2.71
2019-01-10T10:26:02.685Z,2.82
2019-01-10T10:28:56.536Z,2.95
2019-01-10T10:31:45.564Z,2.99
2019-01-10T10:34:46.320Z,2.87
2019-01-10T10:37:46.323Z,3.09
2019-01-10T10:40:47.508Z,3.03
2019-01-10T10:43:46.868Z,3.11
2019-01-10T10:46:47.045Z,3.22
2019-01-10T10:52:02.148Z,3.22
2019-01-10T10:54:49.193Z,3.15
2019-01-10T10:57:16.935Z,3.20
2019-01-10T11:00:16.793Z,3.20
2019-01-10T11:03:17.077Z,3.23
2019-01-10T11:05:44.760Z,3.26
2019-01-10T11:08:44.658Z,3.31
2019-01-10T11:11:44.505Z,3.43
2019-01-10T11:14:48.199Z,3.59
2019-01-10T11:17:47.734Z,3.59
2019-01-10T11:20:17.630Z,3.65
2019-01-10T11:23:20.623Z,3.85
2019-01-10T11:26:19.989Z,3.67
2019-01-10T11:29:20.042Z,3.86
2019-01-10T11:35:21.361Z,3.75
2019-01-10T11:38:11.546Z,3.65
2019-01-10T11:41:06.533Z,3.84
2019-01-10T11:44:05.967Z,3.84
2019-01-10T11:47:06.269Z,3.87
2019-01-10T11:49:53.557Z,4.00
2019-01-10T11:52:53.805Z,4.11
2019-01-10T11:55:53.794Z,4.34
2019-01-10T11:58:53.959Z,4.42
2019-01-10T12:01:53.280Z,4.63
2019-01-10T12:04:53.518Z,4.93
2019-01-10T12:07:32.802Z,5.22
2019-01-10T12:10:00.517Z,5.29
2019-01-10T12:13:00.019Z,5.21
2019-01-10T12:16:00.147Z,5.29
2019-01-10T12:18:27.920Z,5.38
2019-01-10T12:24:18.445Z,5.18
2019-01-10T12:27:18.214Z,5.42
2019-01-10T12:30:18.430Z,5.58
2019-01-10T12:32:46.121Z,5.45
2019-01-10T12:35:45.916Z,5.51
2019-01-10T12:38:13.693Z,5.18
2019-01-10T12:41:07.848Z,5.10
2019-01-10T12:46:40.571Z,5.01
2019-01-10T12:49:40.643Z,4.92
2019-01-10T12:52:08.366Z,5.05
2019-01-10T12:54:36.086Z,5.52
2019-01-10T12:57:17.066Z,5.71
2019-01-10T13:00:16.934Z,5.72
2019-01-10T13:02:45.810Z,5.78
2019-01-10T13:05:46.124Z,6.01
2019-01-10T13:08:13.765Z,6.58
2019-01-10T13:11:13.988Z,7.26
2019-01-10T13:14:14.122Z,7.40
2019-01-10T13:17:14.449Z,6.84
2019-01-10T13:20:13.819Z,6.65
2019-01-10T13:23:14.068Z,6.97
2019-01-10T13:25:59.565Z,6.52
2019-01-10T13:28:56.479Z,6.66
2019-01-10T13:34:26.334Z,6.30
2019-01-10T13:36:54.101Z,6.39
2019-01-10T13:39:21.847Z,6.26
2019-01-10T13:44:50.978Z,5.65
2019-01-10T13:47:18.677Z,5.81
2019-01-10T13:50:18.061Z,5.69
2019-01-10T13:55:55.393Z,5.67
2019-01-10T13:58:54.847Z,5.92
2019-01-10T14:01:22.571Z,6.13
2019-01-10T14:07:03.911Z,6.51
2019-01-10T14:12:43.830Z,6.12
2019-01-10T14:15:26.819Z,6.46
2019-01-10T14:17:54.549Z,6.59
2019-01-10T14:20:56.193Z,6.62
2019-01-10T14:23:56.425Z,6.74
2019-01-10T14:26:56.625Z,6.44
2019-01-10T14:29:56.910Z,5.96
2019-01-10T14:32:24.830Z,5.90
2019-01-10T14:35:24.293Z,5.70
2019-01-10T14:38:24.494Z,5.64
2019-01-10T14:41:03.803Z,5.51
2019-01-10T14:44:04.028Z,5.60
2019-01-10T14:47:07.661Z,5.56
2019-01-10T14:50:05.611Z,5.36
2019-01-10T14:53:05.721Z,5.16
2019-01-10T14:55:54.723Z,4.99
2019-01-10T14:58:54.024Z,4.86
2019-01-10T15:01:33.687Z,4.88
2019-01-10T15:07:08.147Z,4.58
2019-01-10T15:13:01.547Z,4.33
2019-01-10T15:15:41.100Z,4.27
2019-01-10T15:18:08.898Z,4.07
2019-01-10T15:21:08.722Z,4.10
2019-01-10T15:24:09.049Z,4.08
2019-01-10T15:27:09.212Z,3.93
2019-01-10T15:30:08.653Z,3.80
2019-01-10T15:32:36.358Z,3.64
2019-01-10T15:38:06.917Z,3.48
2019-01-10T15:41:06.916Z,3.40
2019-01-10T15:43:55.769Z,3.33
2019-01-10T15:49:56.536Z,3.33
2019-01-10T15:53:00.699Z,3.30
2019-01-10T15:55:39.839Z,3.22
2019-01-10T15:58:07.511Z,3.20
2019-01-10T16:01:07.441Z,3.28
2019-01-10T16:03:56.456Z,3.29
2019-01-10T16:07:09.586Z,3.34
2019-01-10T16:10:10.011Z,3.27
2019-01-10T16:16:11.161Z,3.37
2019-01-10T16:19:11.524Z,3.21
2019-01-10T16:22:11.115Z,3.19
2019-01-10T16:24:51.706Z,3.21
2019-01-10T16:27:51.352Z,3.22
2019-01-10T16:30:38.470Z,3.16
2019-01-10T16:33:38.581Z,3.20
2019-01-10T16:36:17.631Z,3.19
2019-01-10T16:39:17.760Z,3.16
2019-01-10T16:44:38.200Z,3.00
2019-01-10T16:47:05.961Z,2.99
2019-01-10T16:50:08.299Z,3.04
2019-01-10T16:53:08.761Z,3.01
2019-01-10T16:58:49.417Z,2.92
2019-01-10T17:01:49.674Z,2.92
2019-01-10T17:04:49.971Z,2.94
2019-01-10T17:10:38.516Z,2.83
2019-01-10T17:13:06.418Z,2.76
2019-01-10T17:16:05.882Z,2.68
2019-01-10T17:18:34.632Z,2.73
2019-01-10T17:31:12.524Z,2.49
2019-01-10T17:37:06.842Z,2.26
2019-01-10T17:40:06.473Z,2.26
2019-01-10T17:43:07.725Z,2.30
2019-01-10T17:46:07.973Z,2.25
2019-01-10T17:49:08.295Z,2.33
2019-01-10T17:55:13.042Z,2.35
2019-01-10T17:57:40.841Z,2.36
2019-01-10T18:00:15.717Z,2.30
2019-01-10T18:02:44.490Z,2.34
2019-01-10T18:05:13.245Z,2.31
2019-01-10T18:11:21.114Z,2.35
2019-01-10T18:17:23.774Z,2.23
2019-01-10T18:20:02.955Z,2.26
2019-01-10T18:23:04.150Z,2.27
2019-01-10T18:25:31.848Z,2.27
2019-01-10T18:28:31.260Z,2.30
2019-01-10T18:30:59.771Z,2.28
2019-01-10T18:34:11.898Z,2.25
2019-01-10T18:36:40.771Z,2.26
2019-01-10T18:39:09.731Z,2.25
2019-01-10T18:41:38.471Z,2.21
2019-01-10T18:44:07.013Z,2.17
2019-01-10T18:50:46.752Z,2.29
2019-01-10T18:53:25.842Z,2.23
2019-01-10T18:56:06.707Z,2.29
2019-01-10T18:58:55.774Z,2.26
2019-01-10T19:01:55.951Z,2.24
2019-01-10T19:04:23.640Z,2.15
2019-01-10T19:10:44.124Z,2.26
2019-01-10T19:16:36.297Z,2.11
2019-01-10T19:19:36.013Z,2.11
2019-01-10T19:22:36.125Z,2.11
2019-01-10T19:28:45.895Z,2.07
2019-01-10T19:37:39.632Z,1.97
2019-01-10T19:43:29.222Z,1.98
2019-01-10T19:45:56.997Z,1.94
2019-01-10T19:48:57.311Z,1.92
2019-01-10T19:51:26.056Z,1.94
2019-01-10T19:54:25.465Z,1.93
2019-01-10T19:56:53.331Z,1.93
2019-01-10T19:59:52.751Z,1.92
2019-01-10T20:02:20.442Z,1.92
2019-01-10T20:11:27.029Z,1.94
2019-01-10T20:20:29.473Z,1.88
2019-01-10T20:23:29.597Z,1.97
2019-01-10T20:26:29.854Z,1.95
2019-01-10T20:29:30.055Z,1.92
2019-01-10T20:35:40.630Z,1.80
2019-01-10T20:41:09.809Z,1.69
2019-01-10T20:44:10.102Z,1.67
2019-01-10T20:46:38.119Z,1.61
2019-01-10T20:49:06.044Z,1.56
2019-01-10T20:51:55.106Z,1.50
2019-01-10T20:54:54.525Z,1.48
2019-01-10T20:57:22.387Z,1.45
2019-01-10T21:00:22.707Z,1.40
2019-01-10T21:02:50.693Z,1.44
2019-01-10T21:05:51.111Z,1.39
2019-01-10T21:08:19.187Z,1.46
2019-01-10T21:11:19.457Z,1.38
2019-01-10T21:13:47.487Z,1.41
2019-01-10T21:16:47.776Z,1.38
2019-01-10T21:19:37.463Z,1.36
2019-01-10T21:22:36.996Z,1.23
2019-01-10T21:25:37.094Z,1.26
2019-01-10T21:28:37.194Z,1.21
2019-01-10T21:31:37.469Z,1.15
2019-01-10T21:34:37.765Z,1.13
2019-01-10T21:37:37.676Z,1.06
2019-01-10T21:40:38.788Z,1.02
2019-01-10T21:43:38.314Z,0.95
2019-01-10T21:52:18.927Z,0.93
2019-01-10T21:55:19.201Z,0.74
2019-01-10T21:57:46.999Z,0.59
2019-01-10T22:00:48.727Z,0.66
2019-01-10T22:03:39.282Z,0.60
2019-01-10T22:06:07.042Z,0.57
2019-01-10T22:09:07.300Z,0.46
2019-01-10T22:11:35.004Z,0.52
2019-01-10T22:14:34.650Z,0.56
2019-01-10T22:20:08.179Z,0.56
2019-01-10T22:23:08.129Z,0.52
2019-01-10T22:25:48.021Z,0.54
2019-01-10T22:28:15.758Z,0.47
2019-01-10T22:31:15.348Z,0.42
2019-01-10T22:34:04.284Z,0.38
2019-01-10T22:36:53.234Z,0.34
2019-01-10T22:42:55.217Z,0.24
2019-01-10T22:45:55.373Z,0.19
2019-01-10T22:48:55.690Z,0.12
2019-01-10T22:51:55.874Z,0.08
2019-01-10T22:54:46.384Z,0.02
2019-01-10T22:57:46.145Z,-0.04
2019-01-10T23:01:12.085Z,-0.17
2019-01-10T23:06:41.868Z,-0.16
2019-01-10T23:09:41.902Z,-0.25
2019-01-10T23:12:42.062Z,-0.27
2019-01-10T23:15:44.302Z,-0.34
2019-01-10T23:18:37.940Z,-0.39
2019-01-10T23:21:26.867Z,-0.33
2019-01-10T23:24:14.759Z,-0.48
2019-01-10T23:27:01.813Z,-0.40
2019-01-10T23:29:48.937Z,-0.36
2019-01-10T23:32:48.349Z,-0.41
2019-01-10T23:35:48.652Z,-0.41
2019-01-10T23:38:52.976Z,-0.50
2019-01-10T23:41:33.604Z,-0.44
2019-01-10T23:44:20.886Z,-0.45
2019-01-10T23:47:00.803Z,-0.45
2019-01-10T23:50:01.361Z,-0.46
2019-01-10T23:52:42.088Z,-0.42
2019-01-10T23:55:31.001Z,-0.43
